createdAt,value
2017-09-14T00:01:08.896Z,78.40
2017-09-14T00:03:38.914Z,78.40
2017-09-14T00:06:08.897Z,78.20
2017-09-14T00:08:39.035Z,78.20
2017-09-14T00:11:09.332Z,78.50
2017-09-14T00:13:39.491Z,78.50
2017-09-14T00:16:09.584Z,78.20
2017-09-14T00:18:39.888Z,78.20
2017-09-14T00:21:10.871Z,78.50
2017-09-14T00:23:40.889Z,78.40
2017-09-14T00:26:11.100Z,78.40
2017-09-14T00:28:41.200Z,78.50
2017-09-14T00:31:11.326Z,78.70
2017-09-14T00:33:41.564Z,78.60
2017-09-14T00:36:11.750Z,78.60
2017-09-14T00:38:42.044Z,78.60
2017-09-14T00:41:12.358Z,78.60
2017-09-14T00:43:43.668Z,78.60
2017-09-14T00:46:14.049Z,78.60
2017-09-14T00:48:45.248Z,78.70
2017-09-14T00:51:15.787Z,78.70
2017-09-14T00:53:46.506Z,78.60
2017-09-14T00:56:16.828Z,78.90
2017-09-14T00:58:47.184Z,78.70
2017-09-14T01:01:17.282Z,78.60
2017-09-14T01:03:47.583Z,78.70
2017-09-14T01:06:18.168Z,78.70
2017-09-14T01:08:48.444Z,78.60
2017-09-14T01:11:18.557Z,78.80
2017-09-14T01:13:48.631Z,78.60
2017-09-14T01:16:19.594Z,78.70
2017-09-14T01:18:49.707Z,78.60
2017-09-14T01:21:19.924Z,78.80
2017-09-14T01:23:50.630Z,78.90
2017-09-14T01:26:21.058Z,78.70
2017-09-14T01:28:51.268Z,78.70
2017-09-14T01:31:21.699Z,78.80
2017-09-14T01:33:52.768Z,78.80
2017-09-14T01:36:23.047Z,78.80
2017-09-14T01:38:53.222Z,78.90
2017-09-14T01:41:23.465Z,78.60
2017-09-14T01:43:53.559Z,78.60
2017-09-14T01:46:23.713Z,78.70
2017-09-14T01:48:53.837Z,78.30
2017-09-14T01:51:24.106Z,78.30
2017-09-14T01:53:54.430Z,78.50
2017-09-14T01:56:24.589Z,78.50
2017-09-14T01:58:55.073Z,78.50
2017-09-14T02:01:25.170Z,78.60
2017-09-14T02:03:55.566Z,78.50
2017-09-14T02:06:25.700Z,78.50
2017-09-14T02:08:55.883Z,78.50
2017-09-14T02:11:26.978Z,78.40
2017-09-14T02:13:57.341Z,78.50
2017-09-14T02:16:27.601Z,78.30
2017-09-14T02:19:03.675Z,78.40
2017-09-14T02:21:33.925Z,78.50
2017-09-14T02:24:04.315Z,78.40
2017-09-14T02:26:34.555Z,78.50
2017-09-14T02:29:04.951Z,78.30
2017-09-14T02:31:35.790Z,78.40
2017-09-14T02:34:06.126Z,78.50
2017-09-14T02:36:36.543Z,78.30
2017-09-14T02:39:07.016Z,78.40
2017-09-14T02:41:37.224Z,78.50
2017-09-14T02:44:07.614Z,78.30
2017-09-14T02:46:37.673Z,78.40
2017-09-14T02:49:08.007Z,78.50
2017-09-14T02:51:39.120Z,78.50
2017-09-14T02:54:09.117Z,78.50
2017-09-14T02:56:39.407Z,78.30
2017-09-14T02:59:10.440Z,78.40
2017-09-14T03:01:41.025Z,78.40
2017-09-14T03:04:12.079Z,78.40
2017-09-14T03:06:42.398Z,78.40
2017-09-14T03:09:12.566Z,78.50
2017-09-14T03:11:42.818Z,78.50
2017-09-14T03:14:13.035Z,78.70
2017-09-14T03:16:46.996Z,78.40
2017-09-14T03:19:17.777Z,78.50
2017-09-14T03:21:47.963Z,78.40
2017-09-14T03:24:19.061Z,78.30
2017-09-14T03:26:49.422Z,78.20
2017-09-14T03:29:19.794Z,78.40
2017-09-14T03:31:50.054Z,78.40
2017-09-14T03:34:20.346Z,78.20
2017-09-14T03:36:50.709Z,78.40
2017-09-14T03:39:21.814Z,78.20
2017-09-14T03:41:52.156Z,78.20
2017-09-14T03:44:22.341Z,78.20
2017-09-14T03:46:52.727Z,78.30
2017-09-14T03:49:23.019Z,78.20
2017-09-14T03:51:53.603Z,78.20
2017-09-14T03:54:23.779Z,78.30
2017-09-14T03:56:54.049Z,78.50
2017-09-14T03:59:24.524Z,78.60
2017-09-14T04:01:55.698Z,79.60
2017-09-14T04:04:26.075Z,78.90
2017-09-14T04:06:56.460Z,78.60
2017-09-14T04:09:27.421Z,78.90
2017-09-14T04:11:57.573Z,78.80
2017-09-14T04:14:27.792Z,78.90
2017-09-14T04:16:57.997Z,78.80
2017-09-14T04:19:28.126Z,79.00
2017-09-14T04:21:58.223Z,79.10
2017-09-14T04:24:28.464Z,79.00
2017-09-14T04:26:58.824Z,79.00
2017-09-14T04:29:29.971Z,79.00
2017-09-14T04:32:00.146Z,78.90
2017-09-14T04:34:30.387Z,78.90
2017-09-14T04:37:00.615Z,78.90
2017-09-14T04:39:30.748Z,79.00
2017-09-14T04:42:01.188Z,78.90
2017-09-14T04:44:32.156Z,79.00
2017-09-14T04:47:02.266Z,79.00
2017-09-14T04:49:32.640Z,78.90
2017-09-14T04:52:04.097Z,78.90
2017-09-14T04:54:34.615Z,78.90
2017-09-14T04:57:05.210Z,79.10
2017-09-14T04:59:35.537Z,79.00
2017-09-14T05:02:05.981Z,79.10
2017-09-14T05:04:36.953Z,79.40
2017-09-14T05:07:07.254Z,79.40
2017-09-14T05:09:37.611Z,79.90
2017-09-14T05:12:07.923Z,79.30
2017-09-14T05:14:38.980Z,79.10
2017-09-14T05:17:09.364Z,79.10
2017-09-14T05:19:39.526Z,79.00
2017-09-14T05:22:09.703Z,79.20
2017-09-14T05:24:39.823Z,79.30
2017-09-14T05:27:09.953Z,79.20
2017-09-14T05:29:40.319Z,79.80
2017-09-14T05:32:11.335Z,79.50
2017-09-14T05:34:41.788Z,79.50
2017-09-14T05:37:12.221Z,79.40
2017-09-14T05:39:42.370Z,79.50
2017-09-14T05:42:12.502Z,79.20
2017-09-14T05:44:42.708Z,79.10
2017-09-14T05:47:13.050Z,79.20
2017-09-14T05:49:43.477Z,79.10
2017-09-14T05:52:13.744Z,78.90
2017-09-14T05:54:43.913Z,79.10
2017-09-14T05:57:14.157Z,79.20
2017-09-14T05:59:45.237Z,79.20
2017-09-14T06:02:15.512Z,79.20
2017-09-14T06:04:45.752Z,79.00
2017-09-14T06:07:16.096Z,79.40
2017-09-14T06:09:46.385Z,79.20
2017-09-14T06:12:16.790Z,79.10
2017-09-14T06:14:47.374Z,79.10
2017-09-14T06:17:17.826Z,79.20
2017-09-14T06:19:47.958Z,79.20
2017-09-14T06:22:18.094Z,79.40
2017-09-14T06:24:48.196Z,78.90
2017-09-14T06:27:18.322Z,79.10
2017-09-14T06:29:48.657Z,79.10
2017-09-14T06:32:20.777Z,79.10
2017-09-14T06:34:51.065Z,79.10
2017-09-14T06:37:21.286Z,79.10
2017-09-14T06:39:51.662Z,79.20
2017-09-14T06:42:21.956Z,79.00
2017-09-14T06:44:52.216Z,79.10
2017-09-14T06:47:23.369Z,79.30
2017-09-14T06:49:53.653Z,79.00
2017-09-14T06:52:23.939Z,79.50
2017-09-14T06:54:54.911Z,79.50
2017-09-14T06:57:25.054Z,79.40
2017-09-14T06:59:55.315Z,79.30
2017-09-14T07:02:25.678Z,79.50
2017-09-14T07:04:56.865Z,79.30
2017-09-14T07:07:26.983Z,79.20
2017-09-14T07:09:57.229Z,79.30
2017-09-14T07:12:27.787Z,79.40
2017-09-14T07:14:58.076Z,79.30
2017-09-14T07:17:28.184Z,79.40
2017-09-14T07:19:58.287Z,79.40
2017-09-14T07:22:28.640Z,79.30
2017-09-14T07:24:59.081Z,79.40
2017-09-14T07:27:29.274Z,79.30
2017-09-14T07:29:59.522Z,79.50
2017-09-14T07:32:29.879Z,79.40
2017-09-14T07:35:00.202Z,79.50
2017-09-14T07:37:30.512Z,79.50
2017-09-14T07:40:01.428Z,79.50
2017-09-14T07:42:31.643Z,79.50
2017-09-14T07:45:01.975Z,79.40
2017-09-14T07:47:33.038Z,79.50
2017-09-14T07:50:04.050Z,79.40
2017-09-14T07:52:35.074Z,79.30
2017-09-14T07:55:05.438Z,79.20
2017-09-14T07:57:36.480Z,79.20
2017-09-14T08:00:06.734Z,79.20
2017-09-14T08:02:36.971Z,79.30
2017-09-14T08:05:07.114Z,79.20
2017-09-14T08:07:37.453Z,79.40
2017-09-14T08:10:07.726Z,79.30
2017-09-14T08:12:37.996Z,79.20
2017-09-14T08:15:08.346Z,79.50
2017-09-14T08:17:38.785Z,79.30
2017-09-14T08:20:09.076Z,79.20
2017-09-14T08:22:39.716Z,79.40
2017-09-14T08:25:10.105Z,79.30
2017-09-14T08:27:40.470Z,79.40
2017-09-14T08:30:10.769Z,79.30
2017-09-14T08:32:41.917Z,79.50
2017-09-14T08:35:12.228Z,79.50
2017-09-14T08:37:42.843Z,79.40
2017-09-14T08:40:13.128Z,79.50
2017-09-14T08:42:44.217Z,79.60
2017-09-14T08:45:14.337Z,79.60
2017-09-14T08:47:44.549Z,79.40
2017-09-14T08:50:14.763Z,79.40
2017-09-14T08:52:45.150Z,79.60
2017-09-14T08:55:15.437Z,79.50
2017-09-14T08:57:45.763Z,79.40
2017-09-14T09:00:16.078Z,79.60
2017-09-14T09:02:46.516Z,79.00
2017-09-14T09:05:16.737Z,79.50
2017-09-14T09:07:47.176Z,79.70
2017-09-14T09:10:17.823Z,79.50
2017-09-14T09:12:48.789Z,79.50
2017-09-14T09:15:19.643Z,79.50
2017-09-14T09:17:49.926Z,79.50
2017-09-14T09:20:27.525Z,79.70
2017-09-14T09:22:58.808Z,79.40
2017-09-14T09:25:30.897Z,79.50
2017-09-14T09:28:07.440Z,79.70
2017-09-14T09:30:37.805Z,79.70
2017-09-14T09:33:08.741Z,79.80
2017-09-14T09:35:42.083Z,79.60
2017-09-14T09:38:12.970Z,79.80
2017-09-14T09:40:44.656Z,79.60
2017-09-14T09:43:16.891Z,79.60
2017-09-14T09:45:48.799Z,79.60
2017-09-14T09:48:23.064Z,79.60
2017-09-14T09:50:54.550Z,80.00
2017-09-14T09:53:24.902Z,80.00
2017-09-14T09:55:55.259Z,80.10
2017-09-14T09:58:27.362Z,80.10
2017-09-14T10:00:59.441Z,80.10
2017-09-14T10:03:31.922Z,80.00
2017-09-14T10:06:05.913Z,79.90
2017-09-14T10:08:41.138Z,80.00
2017-09-14T10:11:12.906Z,79.90
2017-09-14T10:13:43.456Z,80.20
2017-09-14T10:16:17.908Z,80.10
2017-09-14T10:18:53.627Z,80.00
2017-09-14T10:21:26.155Z,80.20
2017-09-14T10:23:59.592Z,80.00
2017-09-14T10:26:33.105Z,80.00
2017-09-14T10:29:04.185Z,80.00
2017-09-14T10:31:37.824Z,80.00
2017-09-14T10:34:11.801Z,79.90
2017-09-14T10:36:50.014Z,79.90
2017-09-14T10:39:24.501Z,79.90
2017-09-14T10:41:55.534Z,80.00
2017-09-14T10:44:30.537Z,80.50
2017-09-14T10:47:05.085Z,79.80
2017-09-14T10:49:37.100Z,80.00
2017-09-14T10:52:09.052Z,79.80
2017-09-14T10:54:45.422Z,80.00
2017-09-14T10:57:16.492Z,79.90
2017-09-14T10:59:49.071Z,79.90
2017-09-14T11:02:24.370Z,80.10
2017-09-14T11:04:59.438Z,80.40
2017-09-14T11:07:32.873Z,80.40
2017-09-14T11:10:04.388Z,80.30
2017-09-14T11:12:38.663Z,80.50
2017-09-14T11:15:14.508Z,80.10
2017-09-14T11:17:52.431Z,80.10
2017-09-14T11:20:30.863Z,79.80
2017-09-14T11:23:13.901Z,79.80
2017-09-14T11:25:51.392Z,80.00
2017-09-14T11:28:30.835Z,79.80
2017-09-14T11:31:10.076Z,79.80
2017-09-14T11:33:47.541Z,79.80
2017-09-14T11:36:27.662Z,79.80
2017-09-14T11:39:03.472Z,79.80
2017-09-14T11:41:36.188Z,79.60
2017-09-14T11:44:11.076Z,79.50
2017-09-14T11:46:47.958Z,79.50
2017-09-14T11:49:20.225Z,79.30
2017-09-14T11:51:55.060Z,79.40
2017-09-14T11:54:27.863Z,79.40
2017-09-14T11:57:02.988Z,79.40
2017-09-14T11:59:34.279Z,79.60
2017-09-14T12:02:16.317Z,79.40
2017-09-14T12:04:51.940Z,79.50
2017-09-14T12:07:25.870Z,79.50
2017-09-14T12:10:01.438Z,79.40
2017-09-14T12:12:38.268Z,79.40
2017-09-14T12:15:15.339Z,79.50
2017-09-14T12:17:52.553Z,79.60
2017-09-14T12:20:26.072Z,79.50
2017-09-14T12:22:56.915Z,79.40
2017-09-14T12:25:31.338Z,79.50
2017-09-14T12:28:05.751Z,79.70
2017-09-14T12:30:37.634Z,79.70
2017-09-14T12:33:12.662Z,79.50
2017-09-14T12:35:49.824Z,79.80
2017-09-14T12:38:32.940Z,79.70
2017-09-14T12:41:11.549Z,80.10
2017-09-14T12:43:47.612Z,80.10
2017-09-14T12:46:21.878Z,80.30
2017-09-14T12:48:54.668Z,80.20
2017-09-14T12:51:32.922Z,80.20
2017-09-14T12:54:07.306Z,80.30
2017-09-14T12:56:39.547Z,80.40
2017-09-14T12:59:14.715Z,80.60
2017-09-14T13:01:49.819Z,80.70
2017-09-14T13:04:27.836Z,80.50
2017-09-14T13:07:10.909Z,80.70
2017-09-14T13:09:52.412Z,80.70
2017-09-14T13:12:32.789Z,80.30
2017-09-14T13:15:06.677Z,80.50
2017-09-14T13:17:45.194Z,80.70
2017-09-14T13:20:20.903Z,80.70
2017-09-14T13:22:54.710Z,80.80
2017-09-14T13:25:28.953Z,80.70
2017-09-14T13:28:09.037Z,80.70
2017-09-14T13:30:46.402Z,80.70
2017-09-14T13:33:16.728Z,80.70
2017-09-14T13:35:47.032Z,80.70
2017-09-14T13:38:17.304Z,80.80
2017-09-14T13:40:47.791Z,80.90
2017-09-14T13:43:18.490Z,80.70
2017-09-14T13:45:48.860Z,80.90
2017-09-14T13:48:22.590Z,80.90
2017-09-14T13:50:58.605Z,82.70
2017-09-14T13:53:41.837Z,82.70
2017-09-14T13:56:28.543Z,84.00
2017-09-14T13:59:12.999Z,84.00
2017-09-14T14:01:50.571Z,84.90
2017-09-14T14:04:27.453Z,84.90
2017-09-14T14:06:59.102Z,84.90
2017-09-14T14:09:37.617Z,84.90
2017-09-14T14:12:11.431Z,84.90
2017-09-14T14:17:31.551Z,83.80
2017-09-14T14:20:08.835Z,84.70
2017-09-14T14:22:44.764Z,84.60
2017-09-14T14:25:18.531Z,83.90
2017-09-14T14:27:57.204Z,83.90
2017-09-14T14:30:37.575Z,84.10
2017-09-14T14:33:14.007Z,85.00
2017-09-14T14:35:50.799Z,85.00
2017-09-14T14:38:33.022Z,84.60
2017-09-14T14:41:06.478Z,85.00
2017-09-14T14:43:43.896Z,84.50
2017-09-14T14:46:22.057Z,84.90
2017-09-14T14:49:12.388Z,84.40
2017-09-14T14:55:36.625Z,84.30
2017-09-14T14:58:14.808Z,84.60
2017-09-14T15:00:52.068Z,84.00
2017-09-14T15:03:32.162Z,84.40
2017-09-14T15:06:08.384Z,84.40
2017-09-14T15:08:40.512Z,84.80
2017-09-14T15:11:16.670Z,82.50
2017-09-14T15:13:52.094Z,82.50
2017-09-14T15:16:27.519Z,83.20
2017-09-14T15:19:09.709Z,81.60
2017-09-14T15:21:41.838Z,82.10
2017-09-14T15:24:15.431Z,82.00
2017-09-14T15:26:49.484Z,83.70
2017-09-14T15:29:27.188Z,83.40
2017-09-14T15:32:05.382Z,82.90
2017-09-14T15:34:44.484Z,83.20
2017-09-14T15:37:22.253Z,83.90
2017-09-14T15:40:01.069Z,83.40
2017-09-14T15:42:47.475Z,83.30
2017-09-14T15:45:54.184Z,83.40
2017-09-14T15:48:32.321Z,83.00
2017-09-14T15:52:14.265Z,82.60
2017-09-14T15:54:48.045Z,82.60
2017-09-14T15:57:26.171Z,82.50
2017-09-14T16:00:06.329Z,82.50
2017-09-14T16:02:41.572Z,82.70
2017-09-14T16:05:17.660Z,82.60
2017-09-14T16:07:50.383Z,82.30
2017-09-14T16:10:20.725Z,82.30
2017-09-14T16:12:51.084Z,82.20
2017-09-14T16:15:21.557Z,82.00
2017-09-14T16:17:52.081Z,82.10
2017-09-14T16:20:22.946Z,81.90
2017-09-14T16:22:53.306Z,81.90
2017-09-14T16:25:24.033Z,82.20
2017-09-14T16:27:55.251Z,82.00
2017-09-14T16:30:25.500Z,82.00
2017-09-14T16:32:55.869Z,82.10
2017-09-14T16:35:26.851Z,82.10
2017-09-14T16:37:57.033Z,82.10
2017-09-14T16:40:27.374Z,82.00
2017-09-14T16:42:57.698Z,81.90
2017-09-14T16:45:28.254Z,82.30
2017-09-14T16:48:04.258Z,82.10
2017-09-14T16:50:36.129Z,82.00
2017-09-14T16:53:06.491Z,82.20
2017-09-14T16:55:36.799Z,81.70
2017-09-14T16:58:07.994Z,81.40
2017-09-14T17:00:39.921Z,82.00
2017-09-14T17:03:10.156Z,81.90
2017-09-14T17:05:40.450Z,81.80
2017-09-14T17:08:10.741Z,81.90
2017-09-14T17:10:41.150Z,81.90
2017-09-14T17:13:11.424Z,82.00
2017-09-14T17:15:41.715Z,81.70
2017-09-14T17:18:12.770Z,81.60
2017-09-14T17:20:44.858Z,81.70
2017-09-14T17:23:15.206Z,81.60
2017-09-14T17:25:46.606Z,81.80
2017-09-14T17:28:17.567Z,81.60
2017-09-14T17:30:47.802Z,81.60
2017-09-14T17:33:19.730Z,81.60
2017-09-14T17:35:50.822Z,82.40
2017-09-14T17:38:21.116Z,81.80
2017-09-14T17:40:52.277Z,81.40
2017-09-14T17:43:22.654Z,81.30
2017-09-14T17:45:53.627Z,81.30
2017-09-14T17:48:23.911Z,81.20
2017-09-14T17:50:54.348Z,82.10
2017-09-14T17:53:24.561Z,81.10
2017-09-14T17:55:54.697Z,81.30
2017-09-14T17:58:25.088Z,81.30
2017-09-14T18:00:55.471Z,81.00
2017-09-14T18:03:25.662Z,81.00
2017-09-14T18:05:56.147Z,80.80
2017-09-14T18:08:26.336Z,80.80
2017-09-14T18:10:56.594Z,81.00
2017-09-14T18:13:26.738Z,81.00
2017-09-14T18:15:57.091Z,81.00
2017-09-14T18:18:27.561Z,80.80
2017-09-14T18:20:57.930Z,80.70
2017-09-14T18:23:28.494Z,80.90
2017-09-14T18:25:59.004Z,81.10
2017-09-14T18:28:29.424Z,81.00
2017-09-14T18:31:01.307Z,81.00
2017-09-14T18:33:31.958Z,80.90
2017-09-14T18:36:02.201Z,80.80
2017-09-14T18:38:32.616Z,80.50
2017-09-14T18:41:02.918Z,80.50
2017-09-14T18:43:33.192Z,80.30
2017-09-14T18:46:03.580Z,80.60
2017-09-14T18:48:34.840Z,80.20
2017-09-14T18:51:05.213Z,80.30
2017-09-14T18:53:35.810Z,80.40
2017-09-14T18:56:07.277Z,80.40
2017-09-14T18:58:38.503Z,80.40
2017-09-14T19:01:09.039Z,80.30
2017-09-14T19:03:39.379Z,80.00
2017-09-14T19:06:09.801Z,80.30
2017-09-14T19:08:41.445Z,80.10
2017-09-14T19:11:12.169Z,80.00
2017-09-14T19:13:44.400Z,79.80
2017-09-14T19:16:14.872Z,79.80
2017-09-14T19:18:45.254Z,79.80
2017-09-14T19:21:15.607Z,80.00
2017-09-14T19:23:45.976Z,79.80
2017-09-14T19:26:16.572Z,79.90
2017-09-14T19:28:47.631Z,79.90
2017-09-14T19:31:18.104Z,80.10
2017-09-14T19:33:48.432Z,80.20
2017-09-14T19:36:19.639Z,80.20
2017-09-14T19:38:50.088Z,80.10
2017-09-14T19:41:20.440Z,80.20
2017-09-14T19:43:52.658Z,80.30
2017-09-14T19:46:22.871Z,80.70
2017-09-14T19:48:53.150Z,80.60
2017-09-14T19:51:23.383Z,80.50
2017-09-14T19:53:53.894Z,80.70
2017-09-14T19:56:24.230Z,80.70
2017-09-14T19:58:54.606Z,80.40
2017-09-14T20:01:25.079Z,80.20
2017-09-14T20:03:55.232Z,80.70
2017-09-14T20:06:25.478Z,80.40
2017-09-14T20:08:55.647Z,80.40
2017-09-14T20:11:26.040Z,80.60
2017-09-14T20:13:56.424Z,80.70
2017-09-14T20:16:26.799Z,80.50
2017-09-14T20:18:57.066Z,80.30
2017-09-14T20:21:27.407Z,80.80
2017-09-14T20:23:58.478Z,80.80
2017-09-14T20:26:28.830Z,80.80
2017-09-14T20:28:59.100Z,80.90
2017-09-14T20:31:30.228Z,80.70
2017-09-14T20:34:00.570Z,80.80
2017-09-14T20:36:32.665Z,80.80
2017-09-14T20:39:02.999Z,80.70
2017-09-14T20:41:34.263Z,80.70
2017-09-14T20:44:04.629Z,80.90
2017-09-14T20:46:35.038Z,80.70
2017-09-14T20:49:05.373Z,80.70
2017-09-14T20:51:35.897Z,80.80
2017-09-14T20:54:07.065Z,80.70
2017-09-14T20:56:38.039Z,80.70
2017-09-14T20:59:08.230Z,80.70
2017-09-14T21:01:38.622Z,80.80
2017-09-14T21:04:09.753Z,80.90
2017-09-14T21:06:40.146Z,80.70
2017-09-14T21:09:10.323Z,80.60
2017-09-14T21:11:40.735Z,80.90
2017-09-14T21:14:11.065Z,80.80
2017-09-14T21:16:41.369Z,80.80
2017-09-14T21:19:11.633Z,80.80
2017-09-14T21:21:41.952Z,81.10
2017-09-14T21:24:12.241Z,80.70
2017-09-14T21:26:42.732Z,80.60
2017-09-14T21:29:13.039Z,80.80
2017-09-14T21:31:43.340Z,80.70
2017-09-14T21:34:13.546Z,80.70
2017-09-14T21:36:43.886Z,80.90
2017-09-14T21:39:15.047Z,80.70
2017-09-14T21:41:45.408Z,80.80
2017-09-14T21:44:15.928Z,80.70
2017-09-14T21:46:46.412Z,80.70
2017-09-14T21:49:16.784Z,80.50
2017-09-14T21:51:47.069Z,80.70
2017-09-14T21:54:17.414Z,80.70
2017-09-14T21:56:47.568Z,80.50
2017-09-14T21:59:17.674Z,80.60
2017-09-14T22:01:47.912Z,80.40
2017-09-14T22:04:18.467Z,80.70
2017-09-14T22:06:49.420Z,80.50
2017-09-14T22:09:19.500Z,80.50
2017-09-14T22:11:49.759Z,80.50
2017-09-14T22:14:19.950Z,80.40
2017-09-14T22:16:50.077Z,80.30
2017-09-14T22:19:20.247Z,80.40
2017-09-14T22:21:50.390Z,80.30
2017-09-14T22:24:20.547Z,80.20
2017-09-14T22:26:50.933Z,80.30
2017-09-14T22:29:21.495Z,80.00
2017-09-14T22:31:52.004Z,80.20
2017-09-14T22:34:22.993Z,80.30
2017-09-14T22:36:54.130Z,80.00
2017-09-14T22:39:24.485Z,80.00
2017-09-14T22:41:54.745Z,80.10
2017-09-14T22:44:25.052Z,79.90
2017-09-14T22:46:55.157Z,80.00
2017-09-14T22:49:25.349Z,79.80
2017-09-14T22:51:55.626Z,80.10
2017-09-14T22:54:25.832Z,79.70
2017-09-14T22:56:56.060Z,79.90
2017-09-14T22:59:28.271Z,79.90
2017-09-14T23:01:59.390Z,79.70
2017-09-14T23:04:29.973Z,79.70
2017-09-14T23:07:00.117Z,79.60
2017-09-14T23:09:30.329Z,79.40
2017-09-14T23:12:01.353Z,79.70
2017-09-14T23:14:31.573Z,79.60
2017-09-14T23:17:02.534Z,79.60
2017-09-14T23:19:32.951Z,79.60
2017-09-14T23:22:03.205Z,79.70
2017-09-14T23:24:33.322Z,79.40
2017-09-14T23:27:03.707Z,78.90
2017-09-14T23:29:33.977Z,79.30
2017-09-14T23:32:05.092Z,79.30
2017-09-14T23:34:35.434Z,79.30
2017-09-14T23:37:05.732Z,80.30
2017-09-14T23:39:36.033Z,79.50
2017-09-14T23:42:06.372Z,80.10
2017-09-14T23:44:36.709Z,79.50
2017-09-14T23:47:06.898Z,79.40
2017-09-14T23:49:37.002Z,79.10
2017-09-14T23:52:07.144Z,79.40
2017-09-14T23:54:38.037Z,79.50
2017-09-14T23:57:08.197Z,79.40
2017-09-14T23:59:38.436Z,79.50
